HAZ1027 ZPPP-ZSHC
Flight info
| Callsign | HAZ1027 |
|---|---|
| Flight time | N/A |
| Altitude | 33100 |
| Route | NODIB W137 LPS A581 WHA R343 UPLEL W95 SAPIN A470 IGRAT |
| Aircraft | A20N/M-SDE2E3FGHIRWXY/LB1 |
Departure
| Time | 2026-05-04 12:57 |
|---|---|
| Airport | Kunming Changshui International Airport (ZPPP) |
Arrival
| Time | N/A |
|---|---|
| Airport | Hangzhou Xiaoshan International Airport (ZSHC) |
| Time | Latitude | Longitude | Altitude | Speed | Heading |
|---|---|---|---|---|---|
| 2026-05-04 11:43 | 25.11059 | 102.93710 | 6912 ft | 0 kts | 38° |
| 2026-05-04 12:26 | 25.11049 | 102.93701 | 6912 ft | 2 kts | 38° |
| 2026-05-04 12:26 | 25.11037 | 102.93690 | 6912 ft | 2 kts | 38° |
| 2026-05-04 12:27 | 25.11025 | 102.93681 | 6912 ft | 2 kts | 38° |
| 2026-05-04 12:27 | 25.11014 | 102.93671 | 6912 ft | 0 kts | 38° |
| 2026-05-04 12:27 | 25.11005 | 102.93665 | 6912 ft | 2 kts | 12° |
| 2026-05-04 12:27 | 25.10991 | 102.93665 | 6912 ft | 2 kts | 333° |
| 2026-05-04 12:28 | 25.10983 | 102.93671 | 6912 ft | 1 kts | 310° |
| 2026-05-04 12:28 | 25.10979 | 102.93677 | 6912 ft | 0 kts | 308° |
| 2026-05-04 12:38 | 25.10980 | 102.93677 | 6912 ft | 0 kts | 308° |
| 2026-05-04 12:38 | 25.10984 | 102.93671 | 6912 ft | 1 kts | 309° |
| 2026-05-04 12:38 | 25.10995 | 102.93656 | 6912 ft | 3 kts | 309° |
| 2026-05-04 12:38 | 25.11019 | 102.93623 | 6912 ft | 7 kts | 308° |
| 2026-05-04 12:39 | 25.11059 | 102.93568 | 6912 ft | 10 kts | 308° |
| 2026-05-04 12:39 | 25.11112 | 102.93494 | 6912 ft | 13 kts | 308° |
| 2026-05-04 12:39 | 25.11166 | 102.93418 | 6912 ft | 10 kts | 308° |
| 2026-05-04 12:39 | 25.11219 | 102.93346 | 6912 ft | 13 kts | 308° |
| 2026-05-04 12:40 | 25.11277 | 102.93265 | 6912 ft | 12 kts | 308° |
| 2026-05-04 12:40 | 25.11335 | 102.93185 | 6912 ft | 12 kts | 308° |
| 2026-05-04 12:40 | 25.11394 | 102.93103 | 6912 ft | 13 kts | 308° |
| 2026-05-04 12:40 | 25.11441 | 102.93044 | 6912 ft | 10 kts | 323° |
| 2026-05-04 12:41 | 25.11511 | 102.93060 | 6912 ft | 12 kts | 38° |
| 2026-05-04 12:41 | 25.11590 | 102.93129 | 6912 ft | 15 kts | 38° |
| 2026-05-04 12:41 | 25.11682 | 102.93210 | 6912 ft | 18 kts | 38° |
| 2026-05-04 12:41 | 25.11789 | 102.93302 | 6912 ft | 20 kts | 39° |
| 2026-05-04 12:42 | 25.11905 | 102.93404 | 6912 ft | 22 kts | 38° |
| 2026-05-04 12:42 | 25.11986 | 102.93475 | 6912 ft | 14 kts | 39° |
| 2026-05-04 12:42 | 25.12070 | 102.93547 | 6912 ft | 14 kts | 38° |
| 2026-05-04 12:42 | 25.12152 | 102.93619 | 6912 ft | 15 kts | 39° |
| 2026-05-04 12:43 | 25.12239 | 102.93694 | 6912 ft | 16 kts | 38° |
| 2026-05-04 12:43 | 25.12332 | 102.93775 | 6912 ft | 17 kts | 39° |
| 2026-05-04 12:43 | 25.12388 | 102.93825 | 6912 ft | 5 kts | 38° |
| 2026-05-04 12:43 | 25.12423 | 102.93855 | 6912 ft | 7 kts | 38° |
| 2026-05-04 12:44 | 25.12460 | 102.93887 | 6912 ft | 0 kts | 38° |
| 2026-05-04 12:44 | 25.12463 | 102.93890 | 6912 ft | 1 kts | 38° |
| 2026-05-04 12:44 | 25.12477 | 102.93902 | 6912 ft | 3 kts | 38° |
| 2026-05-04 12:44 | 25.12503 | 102.93925 | 6912 ft | 5 kts | 38° |
| 2026-05-04 12:45 | 25.12522 | 102.93941 | 6912 ft | 0 kts | 38° |
| 2026-05-04 12:45 | 25.12523 | 102.93941 | 6912 ft | 0 kts | 38° |
| 2026-05-04 12:47 | 25.12525 | 102.93943 | 6912 ft | 1 kts | 38° |
| 2026-05-04 12:47 | 25.12532 | 102.93949 | 6912 ft | 0 kts | 38° |
| 2026-05-04 12:48 | 25.12536 | 102.93953 | 6912 ft | 2 kts | 38° |
| 2026-05-04 12:48 | 25.12561 | 102.93974 | 6912 ft | 6 kts | 38° |
| 2026-05-04 12:48 | 25.12609 | 102.94016 | 6912 ft | 10 kts | 39° |
| 2026-05-04 12:48 | 25.12639 | 102.94042 | 6911 ft | 0 kts | 39° |
| 2026-05-04 12:50 | 25.12645 | 102.94048 | 6912 ft | 3 kts | 39° |
| 2026-05-04 12:50 | 25.12666 | 102.94067 | 6911 ft | 0 kts | 38° |
| 2026-05-04 12:50 | 25.12668 | 102.94068 | 6911 ft | 1 kts | 38° |
| 2026-05-04 12:51 | 25.12690 | 102.94087 | 6911 ft | 6 kts | 38° |
| 2026-05-04 12:51 | 25.12735 | 102.94126 | 6911 ft | 10 kts | 38° |
| 2026-05-04 12:51 | 25.12795 | 102.94178 | 6911 ft | 7 kts | 38° |
| 2026-05-04 12:51 | 25.12847 | 102.94224 | 6911 ft | 11 kts | 39° |
| 2026-05-04 12:52 | 25.12865 | 102.94239 | 6911 ft | 2 kts | 37° |
| 2026-05-04 12:52 | 25.12887 | 102.94258 | 6911 ft | 0 kts | 38° |
| 2026-05-04 12:52 | 25.12889 | 102.94260 | 6911 ft | 0 kts | 38° |
| 2026-05-04 12:52 | 25.12890 | 102.94260 | 6911 ft | 0 kts | 38° |
| 2026-05-04 12:53 | 25.12891 | 102.94262 | 6911 ft | 1 kts | 38° |
| 2026-05-04 12:53 | 25.12898 | 102.94268 | 6911 ft | 2 kts | 38° |
| 2026-05-04 12:53 | 25.12925 | 102.94282 | 6911 ft | 6 kts | 12° |
| 2026-05-04 12:54 | 25.12963 | 102.94263 | 6911 ft | 0 kts | 311° |
| 2026-05-04 12:54 | 25.12965 | 102.94260 | 6911 ft | 1 kts | 311° |
| 2026-05-04 12:55 | 25.12971 | 102.94253 | 6911 ft | 0 kts | 311° |
| 2026-05-04 12:56 | 25.12985 | 102.94235 | 6911 ft | 6 kts | 309° |
| 2026-05-04 12:56 | 25.13017 | 102.94183 | 6911 ft | 9 kts | 291° |
| 2026-05-04 12:56 | 25.13006 | 102.94125 | 6911 ft | 1 kts | 224° |
| 2026-05-04 12:56 | 25.12941 | 102.94061 | 6911 ft | 32 kts | 220° |
| 2026-05-04 12:57 | 25.12563 | 102.93735 | 6912 ft | 103 kts | 219° |
| 2026-05-04 12:57 | 25.11838 | 102.93108 | 6913 ft | 160 kts | 218° |
| 2026-05-04 12:57 | 25.10905 | 102.92337 | 7331 ft | 172 kts | 214° |
| 2026-05-04 12:57 | 25.09942 | 102.91544 | 7910 ft | 178 kts | 222° |
| 2026-05-04 12:58 | 25.09123 | 102.90540 | 8622 ft | 177 kts | 235° |
| 2026-05-04 12:58 | 25.08437 | 102.89451 | 9159 ft | 178 kts | 226° |
| 2026-05-04 12:58 | 25.07278 | 102.88872 | 9414 ft | 196 kts | 181° |
| 2026-05-04 12:58 | 25.05864 | 102.89114 | 9723 ft | 213 kts | 171° |
| 2026-05-04 12:59 | 25.04366 | 102.89450 | 10022 ft | 229 kts | 173° |
| 2026-05-04 12:59 | 25.02725 | 102.89737 | 10282 ft | 248 kts | 175° |
| 2026-05-04 12:59 | 25.00940 | 102.89971 | 10574 ft | 266 kts | 177° |
| 2026-05-04 12:59 | 24.99066 | 102.90174 | 11183 ft | 272 kts | 178° |
| 2026-05-04 13:00 | 24.97164 | 102.90359 | 11840 ft | 276 kts | 179° |
| 2026-05-04 13:00 | 24.95257 | 102.90530 | 12449 ft | 281 kts | 179° |
| 2026-05-04 13:00 | 24.93272 | 102.90704 | 13055 ft | 286 kts | 180° |
| 2026-05-04 13:00 | 24.91280 | 102.90874 | 13652 ft | 290 kts | 180° |
| 2026-05-04 13:01 | 24.89264 | 102.91044 | 14256 ft | 294 kts | 181° |
| 2026-05-04 13:01 | 24.87214 | 102.91285 | 14843 ft | 301 kts | 170° |
| 2026-05-04 13:01 | 24.85318 | 102.92329 | 15366 ft | 316 kts | 141° |
| 2026-05-04 13:01 | 24.83919 | 102.94276 | 15706 ft | 333 kts | 123° |
| 2026-05-04 13:02 | 24.82712 | 102.96529 | 15977 ft | 349 kts | 121° |
| 2026-05-04 13:02 | 24.81569 | 102.98929 | 16221 ft | 365 kts | 109° |
| 2026-05-04 13:02 | 24.81170 | 103.01708 | 16452 ft | 378 kts | 85° |
| 2026-05-04 13:02 | 24.81806 | 103.04519 | 16677 ft | 386 kts | 60° |
| 2026-05-04 13:03 | 24.83446 | 103.06897 | 16898 ft | 389 kts | 36° |
| 2026-05-04 13:03 | 24.85665 | 103.08608 | 17135 ft | 397 kts | 29° |
| 2026-05-04 13:03 | 24.88015 | 103.10320 | 17346 ft | 410 kts | 30° |
| 2026-05-04 13:03 | 24.90405 | 103.12099 | 17543 ft | 422 kts | 30° |
| 2026-05-04 13:04 | 24.92843 | 103.13937 | 17812 ft | 431 kts | 30° |
| 2026-05-04 13:04 | 24.95316 | 103.15821 | 18253 ft | 434 kts | 30° |
| 2026-05-04 13:04 | 24.97812 | 103.17731 | 18740 ft | 436 kts | 31° |
| 2026-05-04 13:04 | 25.00331 | 103.19662 | 19173 ft | 439 kts | 30° |
| 2026-05-04 13:05 | 25.02824 | 103.21576 | 19599 ft | 442 kts | 31° |
| 2026-05-04 13:05 | 25.05362 | 103.23526 | 20026 ft | 445 kts | 31° |
| 2026-05-04 13:05 | 25.07895 | 103.25474 | 20441 ft | 448 kts | 31° |
| 2026-05-04 13:05 | 25.10479 | 103.27464 | 20856 ft | 450 kts | 31° |
| 2026-05-04 13:06 | 25.13031 | 103.29429 | 21286 ft | 452 kts | 31° |
| 2026-05-04 13:06 | 25.15626 | 103.31428 | 21693 ft | 455 kts | 31° |
| 2026-05-04 13:06 | 25.18265 | 103.33464 | 22075 ft | 458 kts | 31° |
| 2026-05-04 13:06 | 25.20877 | 103.35479 | 22466 ft | 460 kts | 31° |
| 2026-05-04 13:07 | 25.23491 | 103.37496 | 22836 ft | 462 kts | 30° |
| 2026-05-04 13:07 | 25.26132 | 103.39538 | 23194 ft | 465 kts | 30° |
| 2026-05-04 13:07 | 25.28782 | 103.41585 | 23548 ft | 468 kts | 30° |
| 2026-05-04 13:07 | 25.31461 | 103.43658 | 23895 ft | 470 kts | 30° |
| 2026-05-04 13:08 | 25.34161 | 103.45747 | 24233 ft | 473 kts | 30° |
| 2026-05-04 13:08 | 25.36862 | 103.47837 | 24565 ft | 476 kts | 30° |
| 2026-05-04 13:08 | 25.39566 | 103.49933 | 24902 ft | 478 kts | 30° |
| 2026-05-04 13:08 | 25.42280 | 103.52037 | 25219 ft | 480 kts | 30° |
| 2026-05-04 13:09 | 25.45052 | 103.54187 | 25527 ft | 483 kts | 30° |
| 2026-05-04 13:09 | 25.47800 | 103.56319 | 25808 ft | 485 kts | 30° |
| 2026-05-04 13:09 | 25.50557 | 103.58566 | 26095 ft | 490 kts | 34° |
| 2026-05-04 13:09 | 25.53048 | 103.61125 | 26351 ft | 498 kts | 41° |
| 2026-05-04 13:10 | 25.55296 | 103.64105 | 26686 ft | 504 kts | 49° |
| 2026-05-04 13:10 | 25.57255 | 103.67311 | 27072 ft | 504 kts | 52° |
| 2026-05-04 13:10 | 25.59145 | 103.70586 | 27435 ft | 504 kts | 53° |
| 2026-05-04 13:10 | 25.61020 | 103.73871 | 27761 ft | 504 kts | 53° |
| 2026-05-04 13:11 | 25.62879 | 103.77119 | 28081 ft | 503 kts | 53° |
| 2026-05-04 13:11 | 25.64758 | 103.80390 | 28423 ft | 503 kts | 52° |
| 2026-05-04 13:11 | 25.66645 | 103.83660 | 28781 ft | 502 kts | 52° |
| 2026-05-04 13:11 | 25.68526 | 103.86911 | 29109 ft | 501 kts | 52° |
| 2026-05-04 13:12 | 25.70408 | 103.90161 | 29397 ft | 502 kts | 52° |
| 2026-05-04 13:12 | 25.72300 | 103.93428 | 29687 ft | 502 kts | 52° |
| 2026-05-04 13:12 | 25.74184 | 103.96688 | 29979 ft | 503 kts | 52° |
| 2026-05-04 13:12 | 25.76052 | 103.99924 | 30264 ft | 503 kts | 52° |
| 2026-05-04 13:13 | 25.77938 | 104.03194 | 30555 ft | 503 kts | 52° |
| 2026-05-04 13:13 | 25.79823 | 104.06461 | 30863 ft | 502 kts | 52° |
| 2026-05-04 13:13 | 25.81701 | 104.09673 | 31137 ft | 502 kts | 51° |
| 2026-05-04 13:13 | 25.83614 | 104.12918 | 31387 ft | 502 kts | 51° |
| 2026-05-04 13:14 | 25.85518 | 104.16146 | 31656 ft | 502 kts | 51° |
| 2026-05-04 13:14 | 25.87421 | 104.19380 | 31884 ft | 503 kts | 51° |
| 2026-05-04 13:14 | 25.89355 | 104.22670 | 32051 ft | 505 kts | 51° |
| 2026-05-04 13:14 | 25.91273 | 104.25938 | 32225 ft | 507 kts | 51° |
| 2026-05-04 13:15 | 25.93189 | 104.29214 | 32409 ft | 508 kts | 51° |
| 2026-05-04 13:15 | 25.95097 | 104.32474 | 32603 ft | 510 kts | 51° |
| 2026-05-04 13:15 | 25.97025 | 104.35773 | 32811 ft | 511 kts | 51° |
| 2026-05-04 13:15 | 25.99019 | 104.39090 | 33050 ft | 509 kts | 48° |
| 2026-05-04 13:16 | 26.01103 | 104.42199 | 33279 ft | 506 kts | 45° |
| 2026-05-04 13:16 | 26.05755 | 104.48022 | 33376 ft | 500 kts | 38° |
| 2026-05-04 13:17 | 26.10888 | 104.53157 | 33378 ft | 495 kts | 32° |
| 2026-05-04 13:17 | 26.16178 | 104.58034 | 33365 ft | 493 kts | 32° |
| 2026-05-04 13:18 | 26.21477 | 104.62929 | 33364 ft | 494 kts | 32° |
| 2026-05-04 13:18 | 26.26756 | 104.67831 | 33366 ft | 495 kts | 32° |
| 2026-05-04 13:19 | 26.32018 | 104.72732 | 33363 ft | 495 kts | 32° |
| 2026-05-04 13:19 | 26.37293 | 104.77653 | 33361 ft | 495 kts | 32° |
| 2026-05-04 13:20 | 26.42559 | 104.82574 | 33358 ft | 495 kts | 32° |
| 2026-05-04 13:20 | 26.47834 | 104.87509 | 33358 ft | 496 kts | 32° |
| 2026-05-04 13:21 | 26.53120 | 104.92464 | 33355 ft | 495 kts | 32° |
| 2026-05-04 13:21 | 26.58369 | 104.97523 | 33353 ft | 499 kts | 36° |
| 2026-05-04 13:22 | 26.63075 | 105.03303 | 33349 ft | 508 kts | 45° |
| 2026-05-04 13:22 | 26.67001 | 105.09898 | 33347 ft | 517 kts | 54° |
| 2026-05-04 13:23 | 26.70150 | 105.17194 | 33349 ft | 523 kts | 60° |
| 2026-05-04 13:23 | 26.73079 | 105.24621 | 33349 ft | 523 kts | 60° |
| 2026-05-04 13:24 | 26.76013 | 105.32030 | 33347 ft | 522 kts | 60° |
| 2026-05-04 13:24 | 26.78976 | 105.39454 | 33338 ft | 522 kts | 60° |
| 2026-05-04 13:25 | 26.83431 | 105.50615 | 33324 ft | 523 kts | 60° |
| 2026-05-04 13:25 | 26.86392 | 105.58047 | 33320 ft | 524 kts | 60° |
| 2026-05-04 13:26 | 26.89371 | 105.65535 | 33314 ft | 524 kts | 60° |
| 2026-05-04 13:26 | 26.92329 | 105.72990 | 33313 ft | 525 kts | 60° |
| 2026-05-04 13:27 | 26.95266 | 105.80412 | 33306 ft | 525 kts | 60° |
| 2026-05-04 13:27 | 26.98219 | 105.87883 | 33299 ft | 525 kts | 60° |
| 2026-05-04 13:28 | 27.01168 | 105.95364 | 33289 ft | 524 kts | 60° |
| 2026-05-04 13:28 | 27.04135 | 106.02834 | 33281 ft | 523 kts | 58° |
| 2026-05-04 13:29 | 27.07382 | 106.10064 | 33286 ft | 521 kts | 56° |
| 2026-05-04 13:29 | 27.10705 | 106.17282 | 33284 ft | 522 kts | 56° |
| 2026-05-04 13:30 | 27.14008 | 106.24512 | 33284 ft | 523 kts | 56° |
| 2026-05-04 13:30 | 27.17319 | 106.31789 | 33282 ft | 523 kts | 56° |
| 2026-05-04 13:31 | 27.20619 | 106.39053 | 33272 ft | 522 kts | 56° |
| 2026-05-04 13:31 | 27.23913 | 106.46290 | 33263 ft | 523 kts | 56° |
| 2026-05-04 13:32 | 27.27210 | 106.53552 | 33255 ft | 523 kts | 56° |
| 2026-05-04 13:32 | 27.30525 | 106.60877 | 33246 ft | 523 kts | 56° |
| 2026-05-04 13:33 | 27.33802 | 106.68133 | 33240 ft | 523 kts | 57° |
| 2026-05-04 13:33 | 27.37103 | 106.75456 | 33241 ft | 523 kts | 57° |
| 2026-05-04 13:34 | 27.40368 | 106.82725 | 33245 ft | 523 kts | 57° |
| 2026-05-04 13:34 | 27.43621 | 106.90008 | 33247 ft | 523 kts | 57° |
| 2026-05-04 13:35 | 27.48522 | 107.00977 | 33244 ft | 523 kts | 56° |
| 2026-05-04 13:36 | 27.51821 | 107.08254 | 33244 ft | 523 kts | 56° |
| 2026-05-04 13:36 | 27.55120 | 107.15546 | 33250 ft | 524 kts | 56° |
| 2026-05-04 13:37 | 27.58406 | 107.22839 | 33244 ft | 524 kts | 56° |
| 2026-05-04 13:37 | 27.61715 | 107.30171 | 33242 ft | 525 kts | 56° |
| 2026-05-04 13:38 | 27.65010 | 107.37489 | 33239 ft | 525 kts | 56° |
| 2026-05-04 13:38 | 27.68309 | 107.44833 | 33235 ft | 525 kts | 56° |
| 2026-05-04 13:39 | 27.71602 | 107.52178 | 33233 ft | 525 kts | 56° |
| 2026-05-04 13:39 | 27.74887 | 107.59521 | 33235 ft | 526 kts | 56° |
| 2026-05-04 13:40 | 27.78183 | 107.66908 | 33235 ft | 526 kts | 57° |
| 2026-05-04 13:40 | 27.81461 | 107.74262 | 33243 ft | 528 kts | 57° |
| 2026-05-04 13:41 | 27.84777 | 107.81636 | 33238 ft | 527 kts | 56° |
| 2026-05-04 13:41 | 27.88149 | 107.88982 | 33224 ft | 526 kts | 56° |
| 2026-05-04 13:42 | 27.93190 | 108.00003 | 33208 ft | 528 kts | 56° |
| 2026-05-04 13:42 | 27.96558 | 108.07403 | 33203 ft | 529 kts | 56° |
| 2026-05-04 13:43 | 27.99890 | 108.14738 | 33197 ft | 528 kts | 56° |
| 2026-05-04 13:43 | 28.03260 | 108.22175 | 33198 ft | 529 kts | 56° |
| 2026-05-04 13:44 | 28.06606 | 108.29570 | 33192 ft | 530 kts | 56° |
| 2026-05-04 13:44 | 28.09964 | 108.37000 | 33191 ft | 531 kts | 56° |
| 2026-05-04 13:45 | 28.13311 | 108.44425 | 33192 ft | 532 kts | 56° |
| 2026-05-04 13:45 | 28.16603 | 108.51743 | 33189 ft | 532 kts | 56° |
| 2026-05-04 13:46 | 28.19918 | 108.59127 | 33198 ft | 532 kts | 56° |
| 2026-05-04 13:46 | 28.23260 | 108.66579 | 33203 ft | 532 kts | 57° |
| 2026-05-04 13:47 | 28.26614 | 108.74069 | 33214 ft | 533 kts | 57° |
| 2026-05-04 13:47 | 28.29880 | 108.81381 | 33216 ft | 533 kts | 57° |
| 2026-05-04 13:48 | 28.33223 | 108.88874 | 33206 ft | 535 kts | 57° |
| 2026-05-04 13:48 | 28.36565 | 108.96392 | 33194 ft | 534 kts | 57° |
| 2026-05-04 13:49 | 28.39911 | 109.03927 | 33182 ft | 535 kts | 57° |
| 2026-05-04 13:49 | 28.43241 | 109.11445 | 33179 ft | 535 kts | 57° |
| 2026-05-04 13:50 | 28.46582 | 109.18992 | 33175 ft | 536 kts | 57° |
| 2026-05-04 13:50 | 28.49914 | 109.26550 | 33165 ft | 536 kts | 57° |
| 2026-05-04 13:51 | 28.53243 | 109.34132 | 33168 ft | 537 kts | 58° |
| 2026-05-04 13:51 | 28.56562 | 109.41695 | 33170 ft | 537 kts | 58° |
| 2026-05-04 13:52 | 28.60956 | 109.53463 | 33168 ft | 542 kts | 63° |
| 2026-05-04 13:53 | 28.63649 | 109.61446 | 33164 ft | 543 kts | 64° |
| 2026-05-04 13:53 | 28.66407 | 109.69468 | 33158 ft | 542 kts | 63° |
| 2026-05-04 13:54 | 28.70568 | 109.80986 | 33160 ft | 543 kts | 63° |
| 2026-05-04 13:55 | 28.74833 | 109.92877 | 33177 ft | 541 kts | 63° |
| 2026-05-04 13:55 | 28.79075 | 110.04767 | 33190 ft | 541 kts | 63° |
| 2026-05-04 13:56 | 28.81906 | 110.12729 | 33187 ft | 542 kts | 63° |
| 2026-05-04 13:57 | 28.86126 | 110.24633 | 33178 ft | 543 kts | 63° |
| 2026-05-04 13:58 | 28.91764 | 110.40597 | 33168 ft | 544 kts | 63° |
| 2026-05-04 13:58 | 28.95992 | 110.52619 | 33173 ft | 544 kts | 63° |
| 2026-05-04 13:59 | 28.98796 | 110.60616 | 33167 ft | 544 kts | 63° |
| 2026-05-04 14:00 | 29.02945 | 110.72478 | 33155 ft | 545 kts | 64° |
| 2026-05-04 14:00 | 29.06978 | 110.83862 | 33148 ft | 544 kts | 64° |
| 2026-05-04 14:01 | 29.09827 | 110.91888 | 33149 ft | 544 kts | 64° |
| 2026-05-04 14:02 | 29.14065 | 111.03898 | 33147 ft | 543 kts | 64° |
| 2026-05-04 14:02 | 29.16773 | 111.11595 | 33150 ft | 542 kts | 64° |
| 2026-05-04 14:03 | 29.19544 | 111.19487 | 33137 ft | 541 kts | 64° |
| 2026-05-04 14:03 | 29.22346 | 111.27489 | 33128 ft | 542 kts | 64° |
| 2026-05-04 14:04 | 29.26512 | 111.39420 | 33124 ft | 541 kts | 64° |
| 2026-05-04 14:04 | 29.29291 | 111.47400 | 33123 ft | 541 kts | 64° |
| 2026-05-04 14:05 | 29.33465 | 111.59395 | 33120 ft | 541 kts | 63° |
| 2026-05-04 14:06 | 29.36719 | 111.67079 | 33116 ft | 535 kts | 56° |
| 2026-05-04 14:06 | 29.40665 | 111.74271 | 33115 ft | 532 kts | 51° |
| 2026-05-04 14:07 | 29.44665 | 111.81172 | 33111 ft | 532 kts | 51° |
| 2026-05-04 14:07 | 29.48665 | 111.88122 | 33118 ft | 531 kts | 51° |
| 2026-05-04 14:08 | 29.52692 | 111.95163 | 33108 ft | 531 kts | 52° |
| 2026-05-04 14:08 | 29.56732 | 112.02264 | 33103 ft | 531 kts | 52° |
| 2026-05-04 14:09 | 29.62784 | 112.12923 | 33107 ft | 532 kts | 52° |
| 2026-05-04 14:10 | 29.68830 | 112.23601 | 33109 ft | 531 kts | 52° |
| 2026-05-04 14:10 | 29.72822 | 112.30670 | 33100 ft | 531 kts | 52° |
| 2026-05-04 14:11 | 29.76836 | 112.37795 | 33106 ft | 530 kts | 52° |
| 2026-05-04 14:11 | 29.82826 | 112.48494 | 33105 ft | 530 kts | 52° |
| 2026-05-04 14:12 | 29.86805 | 112.55612 | 33108 ft | 531 kts | 53° |
| 2026-05-04 14:13 | 29.92769 | 112.66318 | 33109 ft | 530 kts | 53° |
| 2026-05-04 14:13 | 29.96750 | 112.73483 | 33111 ft | 528 kts | 53° |
| 2026-05-04 14:14 | 30.00547 | 112.80318 | 33115 ft | 529 kts | 53° |
| 2026-05-04 14:14 | 30.06480 | 112.91032 | 33113 ft | 528 kts | 53° |
| 2026-05-04 14:15 | 30.14339 | 113.05273 | 33117 ft | 521 kts | 53° |
| 2026-05-04 14:16 | 30.20000 | 113.15566 | 33114 ft | 515 kts | 53° |
| 2026-05-04 14:17 | 30.25773 | 113.25924 | 33108 ft | 515 kts | 52° |
| 2026-05-04 14:18 | 30.31617 | 113.36320 | 33117 ft | 514 kts | 52° |
| 2026-05-04 14:19 | 30.39384 | 113.50217 | 33125 ft | 514 kts | 52° |
| 2026-05-04 14:19 | 30.43223 | 113.57108 | 33115 ft | 513 kts | 53° |
| 2026-05-04 14:20 | 30.47083 | 113.64051 | 33111 ft | 514 kts | 53° |
| 2026-05-04 14:20 | 30.50965 | 113.71041 | 33113 ft | 514 kts | 53° |
| 2026-05-04 14:21 | 30.55567 | 113.81496 | 33116 ft | 521 kts | 71° |
| 2026-05-04 14:21 | 30.56876 | 113.89717 | 33112 ft | 523 kts | 87° |
| 2026-05-04 14:22 | 30.56486 | 113.98099 | 33118 ft | 521 kts | 98° |
| 2026-05-04 14:22 | 30.55570 | 114.06428 | 33112 ft | 522 kts | 98° |
| 2026-05-04 14:23 | 30.54335 | 114.18963 | 33114 ft | 523 kts | 97° |
| 2026-05-04 14:24 | 30.53543 | 114.27292 | 33129 ft | 523 kts | 98° |
| 2026-05-04 14:24 | 30.52725 | 114.35671 | 33126 ft | 524 kts | 97° |
| 2026-05-04 14:25 | 30.51902 | 114.44057 | 33132 ft | 524 kts | 98° |
| 2026-05-04 14:25 | 30.50658 | 114.56604 | 33136 ft | 525 kts | 98° |
| 2026-05-04 14:26 | 30.49821 | 114.64970 | 33141 ft | 525 kts | 98° |
| 2026-05-04 14:26 | 30.48984 | 114.73321 | 33137 ft | 525 kts | 99° |
| 2026-05-04 14:27 | 30.48163 | 114.81419 | 33145 ft | 526 kts | 98° |
| 2026-05-04 14:27 | 30.47300 | 114.89915 | 33148 ft | 526 kts | 99° |
| 2026-05-04 14:28 | 30.46444 | 114.98268 | 33150 ft | 526 kts | 98° |
| 2026-05-04 14:28 | 30.45578 | 115.06699 | 33151 ft | 526 kts | 98° |
| 2026-05-04 14:29 | 30.43255 | 115.23367 | 33158 ft | 523 kts | 110° |
| 2026-05-04 14:30 | 30.40674 | 115.31159 | 33154 ft | 517 kts | 121° |
| 2026-05-04 14:31 | 30.35145 | 115.41708 | 33165 ft | 512 kts | 129° |
| 2026-05-04 14:32 | 30.27302 | 115.55498 | 33161 ft | 514 kts | 129° |
| 2026-05-04 14:32 | 30.23407 | 115.62402 | 33161 ft | 515 kts | 129° |
| 2026-05-04 14:33 | 30.19485 | 115.69354 | 33160 ft | 515 kts | 130° |
| 2026-05-04 14:33 | 30.15734 | 115.75989 | 33161 ft | 516 kts | 130° |
| 2026-05-04 14:34 | 30.11826 | 115.82904 | 32894 ft | 509 kts | 130° |
| 2026-05-04 14:34 | 30.09890 | 115.86317 | 32357 ft | 510 kts | 129° |
| 2026-05-04 14:34 | 30.07951 | 115.89732 | 31923 ft | 513 kts | 129° |
| 2026-05-04 14:34 | 30.05985 | 115.93187 | 31482 ft | 513 kts | 129° |
| 2026-05-04 14:35 | 30.04038 | 115.96609 | 31196 ft | 512 kts | 129° |
| 2026-05-04 14:35 | 30.00149 | 116.03459 | 31158 ft | 511 kts | 129° |
| 2026-05-04 14:36 | 29.96257 | 116.10295 | 31137 ft | 512 kts | 129° |
| 2026-05-04 14:36 | 29.92319 | 116.17194 | 31152 ft | 512 kts | 129° |